Accueil
METAR-TAF:

METAR-TAF

Aéroports :

Heritage Field Airport

Pottstown, Pennsylvanie, États-Unis

latitude: 40-14-18N, longitude: 075-33-26W, altitude: 89 m

Observation

Le bulletin a été fait il y a 24 minutes, à 19:54 UTC
Vent 14 kt de ouest/nord-ouest avec des rafales jusqu'à 26 kt
Température 6°C
Humidité 49%
Pression 1002 hPa
Visibilité: 16.1 km
Nuages fragmentés à une hauteur de 5000 ft
Ciel couvert à une hauteur de 6500 ft

METAR: KPTW 101954Z AUTO 30014G26KT 10SM BKN050 OVC065 06/M04 A2959 RMK AO2 PK WND 32033/1927 SLP018 T00611039

Heure: 16:18 (20:18 UTC)


TAF: absent

Observations et prévisions météorologiques de plus de 4000 aéroports (messages METAR et TAF).

Les stations disponibles sont représentées par des disques jaunes et rouges sur la carte.

Passer la souris dessus pour voir le nom de la station.

Cliquer dessus pour voir les observations et prévisions météorologiques.

Pour changer de carte: cliquez sur les boutons verts avec une croix noire pour zoomer, sur le bouton vert avec un tiret pour effectuer un zoom arrière, ou sur les flèches vertes pour les cartes adjacentes.


METAR-TAF: